Campanya meteocatpedra

Dades de l'estació automàtica Alfarràs

?
?
Resum diari 20:30 TU
Dades diàries de l'estació meteorològica
Temperatura mitjana 11.9 °C
Temperatura màxima 18.5 °C 15:24 TU
Temperatura mínima 5.5 °C 6:17 TU
Humitat relativa mitjana 87%
Precipitació acumulada 0.0 mm
Ratxa màxima del vent (2 m) 12.6 km/h - 278º 14:44 TU

El tram horari està expressat en Temps Universal (TU). Cal sumar una hora en horari d'hivern i dues en horari d'estiu per passar a l'hora oficial.

Alfarràs

Metadades estació meteorol´gica
Municipi Alfarràs
Comarca Segrià
Altitud 268 m
Data alta 17.09.1997
Estat actual Operativa
Dades de període
Període
TU
TM
°C
TX
°C
TN
°C
HRM
%
PPT
mm
VVM (2 m)
km/h
DVM (2 m)
graus
VVX (2 m)
km/h
00:00 - 00:30 9.3 9.7 8.9 99 0.0 0.0 72 1.8
00:30 - 01:00 8.9 9.2 8.6 100 0.0 0.4 44 1.8
01:00 - 01:30 8.1 8.5 7.9 100 0.0 0.4 2 2.9
01:30 - 02:00 8.8 9.2 8.4 100 0.0 0.7 276 3.2
02:00 - 02:30 9.0 9.1 8.9 100 0.0 0.7 225 3.6
02:30 - 03:00 9.1 9.2 9.1 100 0.0 0.0 0 0.0
03:00 - 03:30 8.7 9.2 8.2 100 0.0 0.0 0 0.0
03:30 - 04:00 7.6 8.1 7.2 100 0.0 0.0 214 1.8
04:00 - 04:30 6.9 7.4 6.5 100 0.0 0.0 113 2.2
04:30 - 05:00 6.6 6.9 6.4 100 0.0 0.0 0 0.0
05:00 - 05:30 6.2 6.5 6.0 100 0.0 0.4 263 3.2
05:30 - 06:00 5.8 6.0 5.7 100 0.0 0.0 13 2.2
06:00 - 06:30 5.8 6.0 5.5 100 0.0 0.0 228 2.2
06:30 - 07:00 6.6 7.4 6.1 100 0.0 0.7 152 2.9
07:00 - 07:30 8.3 8.7 7.5 100 0.0 0.7 168 3.2
07:30 - 08:00 9.0 9.6 8.5 100 0.0 1.1 191 3.2
08:00 - 08:30 10.2 10.7 9.7 98 0.0 3.2 173 6.5
08:30 - 09:00 11.2 11.7 10.8 92 0.0 2.5 166 6.1
09:00 - 09:30 12.4 13.4 11.7 85 0.0 1.4 133 7.2
09:30 - 10:00 14.1 14.4 13.5 75 0.0 2.5 136 10.4
10:00 - 10:30 14.8 15.4 14.3 71 0.0 3.2 190 8.3
10:30 - 11:00 15.2 15.7 14.8 70 0.0 3.2 172 9.7
11:00 - 11:30 15.6 16.4 15.1 68 0.0 2.9 228 8.6
11:30 - 12:00 16.2 17.2 15.7 67 0.0 2.9 233 8.3
12:00 - 12:30 17.1 17.5 16.8 65 0.0 2.5 148 7.9
12:30 - 13:00 17.1 17.7 16.7 65 0.0 3.2 270 9.0
13:00 - 13:30 17.5 17.8 17.0 65 0.0 2.9 285 8.3
13:30 - 14:00 17.9 18.4 17.3 66 0.0 3.2 245 9.0
14:00 - 14:30 17.8 18.3 17.5 66 0.0 4.0 264 9.7
14:30 - 15:00 18.0 18.3 17.6 67 0.0 4.0 268 12.6
15:00 - 15:30 18.1 18.5 17.8 67 0.0 2.9 248 9.4
15:30 - 16:00 17.7 18.1 17.3 67 0.0 2.9 265 8.3
16:00 - 16:30 16.8 17.3 16.1 71 0.0 2.9 269 7.2
16:30 - 17:00 15.4 16.1 14.9 77 0.0 2.2 282 5.0
17:00 - 17:30 13.4 14.8 12.0 88 0.0 0.4 327 3.2
17:30 - 18:00 11.9 12.2 11.4 96 0.0 0.4 20 2.2
18:00 - 18:30 11.2 11.6 10.9 98 0.0 0.7 355 5.4
18:30 - 19:00 11.8 12.0 11.4 96 0.0 1.8 330 6.1
19:00 - 19:30 11.3 11.4 11.2 96 0.0 2.5 324 7.2
19:30 - 20:00 11.0 11.2 10.8 95 0.0 2.9 303 7.6
20:00 - 20:30 10.7 10.8 10.6 96 0.0 2.9 318 6.8
20:30 - 21:00 10.4 10.6 10.4 96 0.0 2.9 311 7.9
21:00 - 21:30 (s/d) (s/d) (s/d) (s/d) (s/d) (s/d) (s/d) (s/d)

Les dades en taronja només han passat un control de qualitat automàtic. Resta pendent la seva validació definitiva.